createdAt,value
2019-02-21T00:02:21.210Z,7.70
2019-02-21T00:04:50.362Z,7.70
2019-02-21T00:07:19.326Z,7.70
2019-02-21T00:09:48.266Z,7.80
2019-02-21T00:12:17.363Z,7.80
2019-02-21T00:14:46.478Z,7.80
2019-02-21T00:17:15.593Z,7.90
2019-02-21T00:19:44.745Z,7.90
2019-02-21T00:22:13.800Z,7.80
2019-02-21T00:24:43.017Z,7.80
2019-02-21T00:27:12.143Z,7.80
2019-02-21T00:29:41.162Z,7.80
2019-02-21T00:32:10.222Z,7.80
2019-02-21T00:34:39.231Z,7.80
2019-02-21T00:37:08.264Z,7.80
2019-02-21T00:39:37.232Z,7.80
2019-02-21T00:42:06.407Z,7.70
2019-02-21T00:44:35.400Z,7.70
2019-02-21T00:47:04.465Z,7.60
2019-02-21T00:49:33.579Z,7.60
2019-02-21T00:52:02.915Z,7.60
2019-02-21T00:54:32.064Z,7.50
2019-02-21T00:57:01.057Z,7.50
2019-02-21T00:59:30.072Z,7.50
2019-02-21T01:01:59.207Z,7.40
2019-02-21T01:04:28.305Z,7.40
2019-02-21T01:06:57.336Z,7.40
2019-02-21T01:09:26.404Z,7.40
2019-02-21T01:11:55.515Z,7.40
2019-02-21T01:14:24.683Z,7.40
2019-02-21T01:16:53.754Z,7.40
2019-02-21T01:19:25.623Z,7.40
2019-02-21T01:21:54.724Z,7.40
2019-02-21T01:24:23.800Z,7.30
2019-02-21T01:26:52.892Z,7.30
2019-02-21T01:29:22.067Z,7.30
2019-02-21T01:31:51.063Z,7.30
2019-02-21T01:34:20.164Z,7.30
2019-02-21T01:36:49.267Z,7.20
2019-02-21T01:39:18.305Z,7.30
2019-02-21T01:41:47.321Z,7.20
2019-02-21T01:44:16.395Z,7.20
2019-02-21T01:46:45.445Z,7.20
2019-02-21T01:49:14.461Z,7.30
2019-02-21T01:51:43.548Z,7.30
2019-02-21T01:54:12.627Z,7.30
2019-02-21T01:56:41.636Z,7.30
2019-02-21T01:59:10.749Z,7.30
2019-02-21T02:01:39.910Z,7.30
2019-02-21T02:04:08.997Z,7.30
2019-02-21T02:06:38.070Z,7.30
2019-02-21T02:09:11.099Z,7.30
2019-02-21T02:11:40.154Z,7.30
2019-02-21T02:14:09.285Z,7.30
2019-02-21T02:16:38.346Z,7.30
2019-02-21T02:19:07.442Z,7.20
2019-02-21T02:21:36.419Z,7.20
2019-02-21T02:24:05.497Z,7.20
2019-02-21T02:26:34.492Z,7.20
2019-02-21T02:29:03.555Z,7.20
2019-02-21T02:31:32.716Z,7.20
2019-02-21T02:34:01.866Z,7.20
2019-02-21T02:36:30.954Z,7.20
2019-02-21T02:39:00.005Z,7.20
2019-02-21T02:41:29.207Z,7.20
2019-02-21T02:43:58.334Z,7.20
2019-02-21T02:46:27.466Z,7.20
2019-02-21T02:48:56.477Z,7.20
2019-02-21T02:51:25.570Z,7.20
2019-02-21T02:53:54.686Z,7.20
2019-02-21T02:56:23.796Z,7.20
2019-02-21T02:58:52.868Z,7.10
2019-02-21T03:01:33.959Z,7.20
2019-02-21T03:03:52.538Z,7.20
2019-02-21T03:06:21.623Z,7.20
2019-02-21T03:08:50.621Z,7.10
2019-02-21T03:11:19.685Z,7.10
2019-02-21T03:13:48.732Z,7.10
2019-02-21T03:16:21.333Z,7.10
2019-02-21T03:19:01.601Z,7.10
2019-02-21T03:21:30.631Z,7.10
2019-02-21T03:23:59.789Z,7.10
2019-02-21T03:26:28.788Z,7.10
2019-02-21T03:28:57.854Z,7.10
2019-02-21T03:31:26.933Z,7.10
2019-02-21T03:33:56.075Z,7.10
2019-02-21T03:36:25.155Z,7.00
2019-02-21T03:38:54.271Z,7.10
2019-02-21T03:41:23.363Z,7.10
2019-02-21T03:43:52.386Z,7.10
2019-02-21T03:46:21.444Z,7.10
2019-02-21T03:48:50.570Z,7.10
2019-02-21T03:51:19.722Z,7.10
2019-02-21T03:53:48.938Z,7.10
2019-02-21T03:56:18.031Z,7.10
2019-02-21T03:58:47.101Z,7.10
2019-02-21T04:01:16.151Z,7.10
2019-02-21T04:03:45.230Z,7.10
2019-02-21T04:06:14.383Z,7.10
2019-02-21T04:08:43.435Z,7.10
2019-02-21T04:11:12.414Z,7.00
2019-02-21T04:13:41.504Z,7.00
2019-02-21T04:16:10.596Z,6.90
2019-02-21T04:18:39.862Z,6.90
2019-02-21T04:21:08.865Z,6.80
2019-02-21T04:23:38.006Z,6.80
2019-02-21T04:26:07.059Z,6.80
2019-02-21T04:28:36.110Z,6.70
2019-02-21T04:31:05.141Z,6.70
2019-02-21T04:33:34.550Z,6.60
2019-02-21T04:36:03.662Z,6.60
2019-02-21T04:38:32.732Z,6.60
2019-02-21T04:41:01.817Z,6.60
2019-02-21T04:43:30.792Z,6.50
2019-02-21T04:45:59.916Z,6.50
2019-02-21T04:48:28.889Z,6.40
2019-02-21T04:50:58.018Z,6.40
2019-02-21T04:53:27.105Z,6.40
2019-02-21T04:55:56.157Z,6.40
2019-02-21T04:58:25.196Z,6.40
2019-02-21T05:00:54.197Z,6.40
2019-02-21T05:03:23.276Z,6.40
2019-02-21T05:05:52.343Z,6.30
2019-02-21T05:08:21.379Z,6.30
2019-02-21T05:10:50.431Z,6.30
2019-02-21T05:13:19.442Z,6.20
2019-02-21T05:15:48.541Z,6.20
2019-02-21T05:18:17.671Z,6.20
2019-02-21T05:20:46.702Z,6.20
2019-02-21T05:23:15.779Z,6.20
2019-02-21T05:25:44.941Z,6.10
2019-02-21T05:28:30.616Z,6.10
2019-02-21T05:31:04.623Z,6.10
2019-02-21T05:33:56.689Z,6.00
2019-02-21T05:36:47.665Z,6.10
2019-02-21T05:39:38.663Z,6.00
2019-02-21T05:42:35.579Z,6.00
2019-02-21T05:45:26.796Z,6.00
2019-02-21T05:48:15.032Z,5.90
2019-02-21T05:51:09.077Z,6.00
2019-02-21T05:53:57.136Z,5.90
2019-02-21T05:56:41.683Z,5.90
2019-02-21T05:59:18.297Z,5.90
2019-02-21T06:01:55.642Z,5.90
2019-02-21T06:04:35.798Z,5.80
2019-02-21T06:07:18.004Z,5.80
2019-02-21T06:10:04.651Z,5.80
2019-02-21T06:12:52.936Z,5.80
2019-02-21T06:15:39.515Z,5.80
2019-02-21T06:18:29.099Z,5.80
2019-02-21T06:21:07.396Z,5.80
2019-02-21T06:23:45.757Z,5.90
2019-02-21T06:26:27.566Z,5.90
2019-02-21T06:29:05.873Z,5.90
2019-02-21T06:31:34.926Z,5.90
2019-02-21T06:34:04.114Z,5.90
2019-02-21T06:36:33.164Z,5.90
2019-02-21T06:39:02.248Z,5.90
2019-02-21T06:41:31.250Z,5.80
2019-02-21T06:44:00.363Z,5.90
2019-02-21T06:46:29.467Z,5.90
2019-02-21T06:48:58.543Z,5.90
2019-02-21T06:51:27.739Z,5.80
2019-02-21T06:53:56.801Z,5.80
2019-02-21T06:56:25.835Z,5.80
2019-02-21T06:58:54.882Z,5.80
2019-02-21T07:01:29.103Z,5.90
2019-02-21T07:03:54.702Z,5.90
2019-02-21T07:06:31.530Z,5.90
2019-02-21T07:08:55.221Z,5.90
2019-02-21T07:11:25.354Z,5.90
2019-02-21T07:13:54.695Z,5.90
2019-02-21T07:16:23.872Z,6.00
2019-02-21T07:18:53.349Z,6.10
2019-02-21T07:21:22.632Z,6.20
2019-02-21T07:23:51.900Z,6.20
2019-02-21T07:26:21.409Z,6.20
2019-02-21T07:28:50.691Z,6.20
2019-02-21T07:31:28.041Z,6.20
2019-02-21T07:33:50.563Z,6.20
2019-02-21T07:36:19.751Z,6.20
2019-02-21T07:38:50.668Z,6.30
2019-02-21T07:41:19.749Z,6.30
2019-02-21T07:43:48.913Z,6.50
2019-02-21T07:46:17.912Z,6.90
2019-02-21T07:48:47.015Z,7.30
2019-02-21T07:51:16.206Z,7.80
2019-02-21T07:53:45.414Z,7.90
2019-02-21T07:56:14.540Z,8.10
2019-02-21T07:58:43.456Z,8.20
2019-02-21T08:01:17.471Z,8.50
2019-02-21T08:03:48.824Z,8.90
2019-02-21T08:06:20.680Z,9.10
2019-02-21T08:08:49.906Z,9.30
2019-02-21T08:11:20.750Z,9.40
2019-02-21T08:13:53.931Z,9.20
2019-02-21T08:16:23.488Z,9.10
2019-02-21T08:18:52.565Z,9.20
2019-02-21T08:21:21.600Z,9.20
2019-02-21T08:23:51.093Z,9.20
2019-02-21T08:26:20.355Z,9.30
2019-02-21T08:28:49.423Z,9.50
2019-02-21T08:31:18.616Z,9.80
2019-02-21T08:33:58.710Z,9.80
2019-02-21T08:36:28.105Z,9.80
2019-02-21T08:38:57.252Z,9.70
2019-02-21T08:41:26.301Z,9.50
2019-02-21T08:43:57.282Z,9.40
2019-02-21T08:46:26.192Z,9.30
2019-02-21T08:48:55.277Z,9.00
2019-02-21T08:51:24.296Z,8.90
2019-02-21T08:53:53.375Z,8.70
2019-02-21T08:56:22.456Z,8.60
2019-02-21T08:58:51.605Z,8.60
2019-02-21T09:01:22.957Z,8.60
2019-02-21T09:03:56.165Z,8.70
2019-02-21T09:06:25.325Z,8.80
2019-02-21T09:08:54.506Z,8.70
2019-02-21T09:11:23.687Z,8.70
2019-02-21T09:13:52.835Z,8.70
2019-02-21T09:16:21.975Z,8.70
2019-02-21T09:18:51.017Z,8.90
2019-02-21T09:21:20.158Z,9.40
2019-02-21T09:23:49.319Z,9.70
2019-02-21T09:26:18.440Z,10.10
2019-02-21T09:28:47.636Z,10.50
2019-02-21T09:31:16.952Z,11.20
2019-02-21T09:33:46.037Z,11.50
2019-02-21T09:36:15.321Z,11.40
2019-02-21T09:38:44.645Z,11.40
2019-02-21T09:41:13.710Z,11.30
2019-02-21T09:43:42.899Z,11.20
2019-02-21T09:46:11.976Z,11.10
2019-02-21T09:48:41.124Z,11.30
2019-02-21T09:51:10.228Z,11.20
2019-02-21T09:53:39.303Z,11.10
2019-02-21T09:56:08.469Z,10.90
2019-02-21T09:58:37.563Z,10.60
2019-02-21T10:01:06.633Z,10.50
2019-02-21T10:03:36.012Z,10.40
2019-02-21T10:06:05.096Z,10.30
2019-02-21T10:08:34.221Z,10.30
2019-02-21T10:11:03.393Z,10.20
2019-02-21T10:13:32.506Z,10.00
2019-02-21T10:16:01.672Z,10.00
2019-02-21T10:18:30.776Z,9.90
2019-02-21T10:20:59.907Z,9.80
2019-02-21T10:23:29.283Z,9.90
2019-02-21T10:25:58.585Z,9.90
2019-02-21T10:28:27.622Z,9.80
2019-02-21T10:30:56.764Z,9.80
2019-02-21T10:33:25.838Z,9.90
2019-02-21T10:35:54.934Z,10.00
2019-02-21T10:38:24.069Z,10.20
2019-02-21T10:40:56.222Z,10.30
2019-02-21T10:43:25.492Z,10.30
2019-02-21T10:45:54.657Z,10.40
2019-02-21T10:48:23.847Z,10.40
2019-02-21T10:50:53.027Z,10.50
2019-02-21T10:53:22.184Z,10.60
2019-02-21T10:55:51.285Z,10.60
2019-02-21T10:58:20.354Z,10.60
2019-02-21T11:00:49.580Z,10.60
2019-02-21T11:03:18.697Z,10.50
2019-02-21T11:05:48.095Z,10.60
2019-02-21T11:08:17.230Z,10.70
2019-02-21T11:10:46.596Z,10.70
2019-02-21T11:15:28.219Z,10.80
2019-02-21T11:17:57.456Z,10.90
2019-02-21T11:20:26.578Z,11.00
2019-02-21T11:22:55.724Z,11.20
2019-02-21T11:25:24.900Z,11.50
2019-02-21T11:27:53.969Z,11.60
2019-02-21T11:30:23.146Z,11.60
2019-02-21T11:32:52.239Z,11.70
2019-02-21T11:35:21.349Z,11.80
2019-02-21T11:37:50.354Z,11.80
2019-02-21T11:40:19.591Z,11.80
2019-02-21T11:42:48.940Z,11.80
2019-02-21T11:45:18.825Z,11.80
2019-02-21T11:47:48.189Z,11.80
2019-02-21T11:50:17.578Z,11.90
2019-02-21T11:52:46.831Z,12.00
2019-02-21T11:55:18.067Z,11.90
2019-02-21T11:57:47.356Z,11.80
2019-02-21T12:00:21.664Z,11.70
2019-02-21T12:02:50.793Z,11.70
2019-02-21T12:05:30.627Z,11.60
2019-02-21T12:07:51.404Z,11.60
2019-02-21T12:10:20.629Z,11.60
2019-02-21T12:12:49.810Z,11.60
2019-02-21T12:15:18.939Z,11.60
2019-02-21T12:17:47.949Z,11.70
2019-02-21T12:20:17.172Z,11.90
2019-02-21T12:22:46.351Z,11.90
2019-02-21T12:25:16.070Z,11.70
2019-02-21T12:27:45.266Z,11.60
2019-02-21T12:30:16.333Z,11.60
2019-02-21T12:32:45.651Z,11.70
2019-02-21T12:35:15.128Z,11.60
2019-02-21T12:37:44.352Z,11.50
2019-02-21T12:40:16.243Z,11.60
2019-02-21T12:42:46.303Z,11.70
2019-02-21T12:45:17.139Z,11.60
2019-02-21T12:47:50.947Z,11.50
2019-02-21T12:50:17.313Z,11.60
2019-02-21T12:52:49.559Z,11.60
2019-02-21T12:55:27.294Z,11.70
2019-02-21T12:57:50.472Z,11.70
2019-02-21T13:00:19.773Z,11.70
2019-02-21T13:03:02.139Z,11.70
2019-02-21T13:05:27.154Z,11.70
2019-02-21T13:08:01.723Z,11.70
2019-02-21T13:10:30.894Z,11.70
2019-02-21T13:12:59.995Z,11.80
2019-02-21T13:15:29.129Z,11.70
2019-02-21T13:17:58.226Z,11.80
2019-02-21T13:20:27.338Z,11.90
2019-02-21T13:22:56.618Z,12.00
2019-02-21T13:25:25.765Z,12.10
2019-02-21T13:27:55.087Z,12.10
2019-02-21T13:30:24.354Z,12.00
2019-02-21T13:32:53.631Z,12.00
2019-02-21T13:35:22.611Z,11.90
2019-02-21T13:37:51.625Z,11.90
2019-02-21T13:40:21.505Z,11.90
2019-02-21T13:42:50.786Z,11.80
2019-02-21T13:45:20.014Z,11.90
2019-02-21T13:47:49.257Z,11.90
2019-02-21T13:50:18.463Z,11.90
2019-02-21T13:52:47.670Z,11.70
2019-02-21T13:55:16.976Z,11.80
2019-02-21T13:57:46.162Z,11.90
2019-02-21T14:00:17.121Z,11.90
2019-02-21T14:02:46.370Z,11.90
2019-02-21T14:05:15.559Z,11.90
2019-02-21T14:07:45.021Z,12.00
2019-02-21T14:10:14.368Z,11.90
2019-02-21T14:12:43.938Z,11.80
2019-02-21T14:15:15.854Z,11.70
2019-02-21T14:17:46.665Z,11.60
2019-02-21T14:20:16.081Z,11.60
2019-02-21T14:22:45.384Z,11.60
2019-02-21T14:25:14.490Z,11.60
2019-02-21T14:27:43.642Z,11.60
2019-02-21T14:30:14.946Z,11.60
2019-02-21T14:32:44.437Z,11.60
2019-02-21T14:35:14.097Z,11.50
2019-02-21T14:37:49.217Z,11.40
2019-02-21T14:40:18.440Z,11.40
2019-02-21T14:42:47.623Z,11.50
2019-02-21T14:45:17.596Z,11.90
2019-02-21T14:47:46.843Z,12.40
2019-02-21T14:50:16.937Z,12.70
2019-02-21T14:52:46.209Z,12.70
2019-02-21T14:55:15.734Z,12.70
2019-02-21T14:57:44.989Z,12.50
2019-02-21T15:00:17.343Z,12.20
2019-02-21T15:02:46.519Z,12.00
2019-02-21T15:05:15.788Z,11.90
2019-02-21T15:07:44.983Z,11.90
2019-02-21T15:10:14.271Z,11.90
2019-02-21T15:12:43.432Z,12.00
2019-02-21T15:15:13.637Z,12.10
2019-02-21T15:17:42.907Z,12.00
2019-02-21T15:20:12.910Z,11.90
2019-02-21T15:22:42.977Z,11.80
2019-02-21T15:25:12.265Z,11.70
2019-02-21T15:27:41.517Z,11.60
2019-02-21T15:30:13.084Z,11.60
2019-02-21T15:32:44.772Z,11.60
2019-02-21T15:35:13.431Z,11.60
2019-02-21T15:37:45.061Z,11.50
2019-02-21T15:40:14.340Z,11.50
2019-02-21T15:42:43.511Z,11.50
2019-02-21T15:45:22.448Z,11.50
2019-02-21T15:47:45.498Z,11.50
2019-02-21T15:50:20.015Z,11.50
2019-02-21T15:52:48.612Z,11.50
2019-02-21T15:55:17.746Z,11.50
2019-02-21T15:57:46.925Z,11.50
2019-02-21T16:00:17.174Z,11.60
2019-02-21T16:02:46.468Z,11.60
2019-02-21T16:05:15.698Z,11.60
2019-02-21T16:07:45.216Z,11.50
2019-02-21T16:10:16.590Z,11.50
2019-02-21T16:12:46.098Z,11.50
2019-02-21T16:15:16.487Z,11.50
2019-02-21T16:17:46.044Z,11.40
2019-02-21T16:20:19.729Z,11.40
2019-02-21T16:22:48.967Z,11.40
2019-02-21T16:25:19.957Z,11.40
2019-02-21T16:27:49.380Z,11.40
2019-02-21T16:30:23.860Z,11.30
2019-02-21T16:32:53.012Z,11.30
2019-02-21T16:35:22.239Z,11.30
2019-02-21T16:37:51.455Z,11.30
2019-02-21T16:40:22.073Z,11.30
2019-02-21T16:42:51.298Z,11.30
2019-02-21T16:45:22.169Z,11.30
2019-02-21T16:47:51.397Z,11.30
2019-02-21T16:50:29.155Z,11.30
2019-02-21T16:52:53.108Z,11.30
2019-02-21T16:55:22.432Z,11.30
2019-02-21T16:57:51.725Z,11.30
2019-02-21T17:00:21.334Z,11.30
2019-02-21T17:02:50.581Z,11.30
2019-02-21T17:05:21.361Z,11.20
2019-02-21T17:07:51.120Z,11.20
2019-02-21T17:10:20.483Z,11.20
2019-02-21T17:12:49.953Z,11.20
2019-02-21T17:15:19.384Z,11.20
2019-02-21T17:17:49.125Z,11.10
2019-02-21T17:20:18.441Z,11.10
2019-02-21T17:22:47.861Z,11.10
2019-02-21T17:25:17.249Z,11.10
2019-02-21T17:27:46.419Z,11.00
2019-02-21T17:30:17.434Z,11.00
2019-02-21T17:32:52.953Z,11.00
2019-02-21T17:35:22.308Z,11.00
2019-02-21T17:37:51.518Z,11.00
2019-02-21T17:40:21.337Z,11.00
2019-02-21T17:42:50.557Z,11.00
2019-02-21T17:45:19.839Z,11.00
2019-02-21T17:47:49.209Z,11.00
2019-02-21T17:50:18.371Z,10.90
2019-02-21T17:52:47.802Z,10.90
2019-02-21T17:55:17.570Z,10.90
2019-02-21T17:57:47.342Z,10.90
2019-02-21T18:00:21.143Z,10.90
2019-02-21T18:02:50.771Z,10.80
2019-02-21T18:05:19.976Z,10.80
2019-02-21T18:07:49.217Z,10.70
2019-02-21T18:10:18.704Z,10.60
2019-02-21T18:12:48.098Z,10.60
2019-02-21T18:15:17.515Z,10.50
2019-02-21T18:17:46.846Z,10.40
2019-02-21T18:20:19.586Z,10.30
2019-02-21T18:22:52.373Z,10.20
2019-02-21T18:25:25.325Z,10.20
2019-02-21T18:27:55.263Z,10.10
2019-02-21T18:30:24.671Z,10.10
2019-02-21T18:32:54.258Z,10.00
2019-02-21T18:35:23.409Z,10.00
2019-02-21T18:37:52.605Z,9.90
2019-02-21T18:40:21.827Z,9.90
2019-02-21T18:42:50.985Z,9.90
2019-02-21T18:45:20.150Z,9.90
2019-02-21T18:47:49.309Z,9.90
2019-02-21T18:50:18.661Z,9.90
2019-02-21T18:52:50.841Z,9.80
2019-02-21T18:55:20.095Z,9.80
2019-02-21T18:57:49.217Z,9.90
2019-02-21T19:00:20.833Z,9.90
2019-02-21T19:02:50.149Z,9.90
2019-02-21T19:05:19.509Z,9.90
2019-02-21T19:08:00.397Z,9.90
2019-02-21T19:10:19.642Z,9.90
2019-02-21T19:12:48.889Z,9.90
2019-02-21T19:15:19.415Z,9.90
2019-02-21T19:17:48.695Z,9.90
2019-02-21T19:20:18.157Z,9.90
2019-02-21T19:22:47.343Z,9.90
2019-02-21T19:25:16.853Z,10.00
2019-02-21T19:27:45.923Z,10.00
2019-02-21T19:30:25.766Z,10.00
2019-02-21T19:32:54.994Z,10.00
2019-02-21T19:35:24.177Z,10.00
2019-02-21T19:37:53.336Z,10.00
2019-02-21T19:40:22.752Z,10.00
2019-02-21T19:42:51.973Z,10.00
2019-02-21T19:45:21.353Z,9.90
2019-02-21T19:47:50.647Z,9.90
2019-02-21T19:50:21.316Z,9.90
2019-02-21T19:52:51.035Z,9.90
2019-02-21T19:55:20.286Z,9.80
2019-02-21T19:57:49.362Z,9.80
2019-02-21T20:00:20.197Z,9.70
2019-02-21T20:02:49.523Z,9.70
2019-02-21T20:05:18.997Z,9.70
2019-02-21T20:07:48.195Z,9.70
2019-02-21T20:10:17.596Z,9.70
2019-02-21T20:12:46.816Z,9.70
2019-02-21T20:15:16.308Z,9.70
2019-02-21T20:17:45.530Z,9.70
2019-02-21T20:20:15.711Z,9.70
2019-02-21T20:22:45.007Z,9.70
2019-02-21T20:25:14.103Z,9.60
2019-02-21T20:27:45.553Z,9.60
2019-02-21T20:30:15.235Z,9.60
2019-02-21T20:32:44.804Z,9.60
2019-02-21T20:35:13.971Z,9.60
2019-02-21T20:37:43.203Z,9.60
2019-02-21T20:40:12.386Z,9.50
2019-02-21T20:42:41.684Z,9.50
2019-02-21T20:45:10.877Z,9.50
2019-02-21T20:47:40.057Z,9.50
2019-02-21T20:50:10.197Z,9.50
2019-02-21T20:52:40.772Z,9.50
2019-02-21T20:55:10.803Z,9.50
2019-02-21T20:57:40.072Z,9.50
2019-02-21T21:00:11.203Z,9.50
2019-02-21T21:02:40.348Z,9.50
2019-02-21T21:05:09.541Z,9.40
2019-02-21T21:07:38.736Z,9.40
2019-02-21T21:10:09.413Z,9.40
2019-02-21T21:12:38.521Z,9.40
2019-02-21T21:15:09.516Z,9.40
2019-02-21T21:17:43.311Z,9.40
2019-02-21T21:20:17.082Z,9.30
2019-02-21T21:22:43.591Z,9.30
2019-02-21T21:25:13.879Z,9.30
2019-02-21T21:27:43.117Z,9.30
2019-02-21T21:30:13.896Z,9.30
2019-02-21T21:32:46.616Z,9.20
2019-02-21T21:35:15.908Z,9.20
2019-02-21T21:37:45.218Z,9.20
2019-02-21T21:40:14.829Z,9.20
2019-02-21T21:42:44.176Z,9.20
2019-02-21T21:45:15.707Z,9.20
2019-02-21T21:47:45.020Z,9.20
2019-02-21T21:50:15.908Z,9.20
2019-02-21T21:52:45.135Z,9.20
2019-02-21T21:55:14.467Z,9.20
2019-02-21T21:57:43.639Z,9.20
2019-02-21T22:00:18.089Z,9.20
2019-02-21T22:02:47.533Z,9.20
2019-02-21T22:05:18.172Z,9.20
2019-02-21T22:07:49.382Z,9.20
2019-02-21T22:10:18.389Z,9.20
2019-02-21T22:12:47.580Z,9.20
2019-02-21T22:15:16.905Z,9.20
2019-02-21T22:17:46.122Z,9.20
2019-02-21T22:20:15.210Z,9.20
2019-02-21T22:22:44.418Z,9.20
2019-02-21T22:25:13.687Z,9.20
2019-02-21T22:27:42.940Z,9.20
2019-02-21T22:30:13.590Z,9.20
2019-02-21T22:32:42.733Z,9.20
2019-02-21T22:35:11.854Z,9.20
2019-02-21T22:37:40.950Z,9.20
2019-02-21T22:40:11.310Z,9.20
2019-02-21T22:42:40.447Z,9.20
2019-02-21T22:45:10.193Z,9.20
2019-02-21T22:47:42.411Z,9.20
2019-02-21T22:50:13.419Z,9.20
2019-02-21T22:52:42.688Z,9.20
2019-02-21T22:55:12.985Z,9.20
2019-02-21T22:57:42.200Z,9.20
2019-02-21T23:00:42.395Z,9.20
2019-02-21T23:03:11.547Z,9.20
2019-02-21T23:06:32.617Z,9.20
2019-02-21T23:09:01.712Z,9.20
2019-02-21T23:11:30.997Z,9.20
2019-02-21T23:14:00.160Z,9.20
2019-02-21T23:16:29.370Z,9.20
2019-02-21T23:19:00.835Z,9.10
2019-02-21T23:21:30.045Z,9.10
2019-02-21T23:24:00.671Z,9.10
2019-02-21T23:26:29.881Z,9.10
2019-02-21T23:28:59.071Z,9.10
2019-02-21T23:31:28.218Z,9.10
2019-02-21T23:33:58.627Z,9.10
2019-02-21T23:36:27.705Z,9.10
2019-02-21T23:38:56.775Z,9.10
2019-02-21T23:41:25.905Z,9.10
2019-02-21T23:43:54.932Z,9.10
2019-02-21T23:46:24.096Z,9.10
2019-02-21T23:48:53.184Z,9.00
2019-02-21T23:51:22.189Z,9.00
2019-02-21T23:53:51.329Z,9.00
2019-02-21T23:56:20.364Z,9.00
2019-02-21T23:58:49.555Z,9.00
